Time;durP1;ratioP1;P1;durP2;ratioP2;P2;SDS_P1;SDS_P2;PMS_P1;PMS_P2;Temp;Humidity;BMP_temperature;BMP_pressure;BME280_temperature;BME280_humidity;BME280_pressure;Samples;Min_cycle;Max_cycle;Signal;HPM_P1;HPM_P2
2022/04/28 00:00:02;;;;;;;9.90;2.53;;;;;;;8.36;70.10;102973.72;5042677;28;20028;-72
2022/04/28 00:02:28;;;;;;;7.72;2.55;;;;;;;8.18;70.38;102951.84;5023837;28;20064;-72
2022/04/28 00:04:55;;;;;;;7.70;2.47;;;;;;;8.38;69.88;102984.13;5023572;28;20044;-72
2022/04/28 00:07:20;;;;;;;8.13;2.20;;;;;;;8.37;69.69;102985.91;5040861;28;20082;-72
2022/04/28 00:09:45;;;;;;;10.15;2.78;;;;;;;8.31;70.06;102974.88;5019195;28;20044;-72
2022/04/28 00:12:11;;;;;;;5.82;2.60;;;;;;;8.30;70.75;102973.19;5003756;28;20112;-73
2022/04/28 00:14:37;;;;;;;4.70;2.17;;;;;;;8.27;70.43;102970.72;5007114;28;20147;-72
2022/04/28 00:17:04;;;;;;;5.97;2.22;;;;;;;8.27;69.83;102968.09;5006420;28;20382;-73
2022/04/28 00:19:29;;;;;;;6.07;1.50;;;;;;;8.41;70.33;102982.22;4998248;28;20369;-73
2022/04/28 00:21:55;;;;;;;7.32;1.98;;;;;;;8.21;69.87;102959.59;5041192;28;20041;-73
2022/04/28 00:24:20;;;;;;;3.00;1.63;;;;;;;8.32;70.04;102971.31;4994727;28;20039;-73
2022/04/28 00:26:46;;;;;;;6.70;2.05;;;;;;;8.39;70.19;102991.09;5010544;28;20044;-73
2022/04/28 00:29:11;;;;;;;8.98;2.42;;;;;;;8.41;70.14;102976.97;5006252;28;20295;-73
2022/04/28 00:31:37;;;;;;;3.63;1.90;;;;;;;8.42;70.94;102985.69;5041028;28;20040;-73
2022/04/28 00:34:03;;;;;;;7.35;2.40;;;;;;;8.38;71.00;102984.13;5041379;28;20033;-73
2022/04/28 00:36:29;;;;;;;10.32;2.63;;;;;;;8.35;71.56;102982.53;5041226;28;20441;-73
2022/04/28 00:38:54;;;;;;;7.97;2.40;;;;;;;8.31;72.82;102982.78;5040312;28;20222;-73
2022/04/28 00:41:20;;;;;;;8.75;2.67;;;;;;;8.11;72.49;102953.13;5040179;28;20476;-73
2022/04/28 00:43:53;;;;;;;7.45;2.63;;;;;;;8.28;72.70;102980.31;5017902;28;20044;-72
2022/04/28 00:46:20;;;;;;;5.97;2.28;;;;;;;8.11;72.24;102968.91;5013130;28;20057;-72
2022/04/28 00:51:31;;;;;;;7.32;2.60;;;;;;;8.12;70.61;102981.16;5022071;28;20044;-72
2022/04/28 00:53:59;;;;;;;4.70;1.75;;;;;;;7.99;70.96;102954.63;5040693;28;20033;-73
2022/04/28 00:56:26;;;;;;;6.13;2.10;;;;;;;8.03;70.82;102968.47;5022053;28;20048;-72
2022/04/28 00:58:54;;;;;;;7.63;2.42;;;;;;;8.10;71.19;102983.00;5020660;28;20025;-72
2022/04/28 01:01:19;;;;;;;6.78;2.60;;;;;;;8.09;70.93;102986.53;5024254;28;20040;-72
2022/04/28 01:03:45;;;;;;;7.53;2.17;;;;;;;8.11;70.88;102984.69;5017198;28;20356;-72
2022/04/28 01:06:11;;;;;;;6.55;2.40;;;;;;;8.10;70.62;102987.38;5022520;28;20116;-73
2022/04/28 01:08:37;;;;;;;6.35;2.47;;;;;;;8.11;70.40;102979.44;5005109;28;20032;-72
2022/04/28 01:11:02;;;;;;;3.88;2.42;;;;;;;8.15;70.22;102974.88;5017130;28;20153;-72
2022/04/28 01:13:28;;;;;;;6.28;2.35;;;;;;;8.14;70.62;102984.50;5023396;28;20090;-72
2022/04/28 01:15:54;;;;;;;3.67;2.40;;;;;;;8.11;70.06;102976.78;5037603;28;20364;-72
2022/04/28 01:18:19;;;;;;;6.40;2.30;;;;;;;8.16;70.15;102981.81;5012684;28;20061;-72
2022/04/28 01:20:45;;;;;;;5.07;2.20;;;;;;;8.11;70.86;102968.91;5020148;28;20073;-73
2022/04/28 01:23:11;;;;;;;4.75;2.63;;;;;;;8.05;71.86;102969.22;5013166;28;20486;-73
2022/04/28 01:25:37;;;;;;;5.15;2.60;;;;;;;8.10;71.08;102982.13;5019553;28;20037;-73
2022/04/28 01:28:03;;;;;;;8.30;2.20;;;;;;;8.10;71.08;102977.75;5017847;28;20524;-73
2022/04/28 01:30:28;;;;;;;4.47;1.95;;;;;;;8.12;70.54;102988.16;5008183;28;20037;-73
2022/04/28 01:32:57;;;;;;;6.65;2.22;;;;;;;8.15;70.16;102986.22;5020000;28;20558;-73
2022/04/28 01:35:25;;;;;;;1.80;1.45;;;;;;;8.07;70.36;102971.78;5020055;28;20500;-73
2022/04/28 01:37:52;;;;;;;6.07;1.73;;;;;;;8.15;70.29;102991.50;5009469;28;20021;-73
2022/04/28 01:40:19;;;;;;;5.68;1.73;;;;;;;8.16;69.92;102998.44;5019263;28;20033;-73
2022/04/28 01:42:45;;;;;;;5.10;1.90;;;;;;;8.17;69.65;102991.41;5009346;28;20219;-73
2022/04/28 01:45:11;;;;;;;5.97;2.03;;;;;;;8.19;70.09;103003.53;5018131;28;20500;-73
2022/04/28 01:47:39;;;;;;;3.08;1.83;;;;;;;8.20;70.04;102999.97;5019406;28;20037;-72
2022/04/28 01:50:06;;;;;;;6.28;2.00;;;;;;;8.19;70.69;103000.91;5020351;28;20033;-72
2022/04/28 01:55:15;;;;;;;4.85;1.80;;;;;;;8.14;70.93;102995.03;5019110;28;20458;-73
2022/04/28 01:57:41;;;;;;;6.22;2.00;;;;;;;8.15;70.53;102995.91;4991727;28;20530;-73
2022/04/28 02:00:08;;;;;;;7.15;1.80;;;;;;;8.14;70.52;102986.31;5008805;28;20033;-73
2022/04/28 02:02:34;;;;;;;4.13;2.03;;;;;;;8.12;70.89;102985.53;5009427;28;20280;-73
2022/04/28 02:05:00;;;;;;;3.25;1.77;;;;;;;8.16;70.92;102987.91;5016999;28;20401;-72
2022/04/28 02:07:26;;;;;;;7.95;1.67;;;;;;;8.15;70.39;102978.34;5017484;28;20025;-72
2022/04/28 02:09:51;;;;;;;5.85;1.95;;;;;;;8.15;70.79;102983.59;5019612;28;20029;-72
2022/04/28 02:12:17;;;;;;;7.53;1.73;;;;;;;8.17;70.56;102979.09;4995935;28;20040;-72
2022/04/28 02:14:42;;;;;;;5.10;1.92;;;;;;;8.17;70.22;102984.38;5018554;28;20029;-72
2022/04/28 02:17:08;;;;;;;2.85;1.63;;;;;;;8.17;70.57;102973.84;5017601;28;20606;-72
2022/04/28 02:19:35;;;;;;;2.75;1.55;;;;;;;8.15;70.00;102964.34;5017573;28;20487;-72
2022/04/28 02:22:01;;;;;;;4.50;1.88;;;;;;;8.20;70.55;102981.56;5009781;28;20409;-72
2022/04/28 02:24:26;;;;;;;6.82;1.70;;;;;;;8.20;70.22;102971.03;5018849;28;20401;-72
2022/04/28 02:26:52;;;;;;;5.00;1.55;;;;;;;8.18;70.52;102974.69;5015903;28;20029;-72
2022/04/28 02:29:18;;;;;;;6.35;1.92;;;;;;;8.19;70.11;102977.25;5008722;28;20029;-72
2022/04/28 02:31:44;;;;;;;4.03;1.65;;;;;;;8.22;70.23;102977.06;5008792;28;20487;-73
2022/04/28 02:34:10;;;;;;;6.15;2.03;;;;;;;8.14;70.27;102966.09;5019165;28;20068;-73
2022/04/28 02:36:36;;;;;;;5.68;1.90;;;;;;;8.22;71.22;102986.75;5008443;28;20532;-73
2022/04/28 02:39:01;;;;;;;6.15;2.65;;;;;;;8.12;70.46;102969.75;5019555;28;20060;-73
2022/04/28 02:41:26;;;;;;;10.70;2.03;;;;;;;8.22;71.10;102982.31;5008825;28;20037;-72
2022/04/28 02:43:52;;;;;;;4.15;1.98;;;;;;;8.22;71.27;102987.59;5010339;28;20037;-72
2022/04/28 02:46:18;;;;;;;3.65;1.73;;;;;;;8.21;71.53;102985.06;5019195;28;20451;-72
2022/04/28 02:48:44;;;;;;;7.25;2.00;;;;;;;8.17;71.51;102971.22;5018436;28;20116;-72
2022/04/28 02:51:10;;;;;;;4.13;1.70;;;;;;;8.20;71.63;102978.94;5017123;28;20041;-73
2022/04/28 02:53:36;;;;;;;3.58;1.92;;;;;;;8.13;71.48;102971.47;5019282;28;20029;-73
2022/04/28 02:56:02;;;;;;;4.93;2.42;;;;;;;8.04;71.57;102964.91;5013291;28;20156;-73
2022/04/28 02:58:28;;;;;;;4.13;1.98;;;;;;;8.15;71.74;102980.97;5022843;28;20270;-73
2022/04/28 03:00:53;;;;;;;6.78;2.67;;;;;;;8.12;71.36;102978.50;5024085;28;20287;-73
2022/04/28 03:03:19;;;;;;;7.70;2.10;;;;;;;7.98;71.99;102966.06;5020646;28;20045;-72
2022/04/28 03:11:12;;;;;;;3.22;2.67;;;;;;;7.99;72.84;102980.94;5021421;28;20122;-73
2022/04/28 03:13:38;;;;;;;5.35;1.98;;;;;;;8.05;72.15;102985.00;5018114;28;20533;-72
2022/04/28 03:16:05;;;;;;;6.90;2.42;;;;;;;7.99;71.75;102980.06;5023628;28;20060;-73
2022/04/28 03:18:30;;;;;;;7.40;2.38;;;;;;;8.04;72.46;102985.94;5015509;28;20092;-72
2022/04/28 03:20:56;;;;;;;4.60;2.08;;;;;;;8.03;73.13;102992.13;5042671;28;20127;-71
2022/04/28 03:23:23;;;;;;;6.90;2.40;;;;;;;7.89;72.90;102969.19;5038466;28;20044;-73
2022/04/28 03:25:51;;;;;;;6.00;1.83;;;;;;;7.99;73.29;102985.31;5016344;28;20044;-72
2022/04/28 03:28:17;;;;;;;4.97;1.92;;;;;;;7.96;73.22;102985.50;5042492;28;20033;-74
2022/04/28 03:30:43;;;;;;;5.40;2.13;;;;;;;7.93;73.23;102983.03;5042755;28;20021;-72
2022/04/28 03:33:08;;;;;;;3.38;1.77;;;;;;;7.93;73.38;102986.50;5007390;28;20036;-72
2022/04/28 03:35:34;;;;;;;4.55;2.45;;;;;;;7.94;73.19;102985.56;5042629;28;20520;-72
2022/04/28 03:37:59;;;;;;;4.45;2.22;;;;;;;7.95;73.22;102989.06;5042173;28;20036;-72
2022/04/28 03:40:25;;;;;;;3.63;2.20;;;;;;;7.92;73.16;102990.06;5042155;28;20335;-72
2022/04/28 03:42:51;;;;;;;3.55;2.10;;;;;;;7.90;72.31;102991.91;5038422;28;20052;-72
2022/04/28 03:45:16;;;;;;;9.27;2.75;;;;;;;7.86;72.86;102986.91;5015285;28;20072;-72
2022/04/28 03:47:42;;;;;;;8.10;2.95;;;;;;;7.66;73.47;102975.63;5042070;28;20029;-73
2022/04/28 03:50:08;;;;;;;6.80;2.40;;;;;;;7.67;73.27;102993.13;5015050;28;20047;-74
2022/04/28 03:52:33;;;;;;;5.47;2.83;;;;;;;7.53;73.89;102985.06;5007745;28;20120;-72
2022/04/28 03:54:59;;;;;;;7.85;2.75;;;;;;;7.48;74.03;102993.19;5040084;28;20331;-73
2022/04/28 03:57:24;;;;;;;6.30;2.25;;;;;;;7.38;75.11;102990.19;5007468;28;20029;-72
2022/04/28 03:59:50;;;;;;;7.90;2.35;;;;;;;7.28;76.33;102998.59;5041160;28;20036;-73
2022/04/28 04:02:15;;;;;;;10.18;2.42;;;;;;;7.10;77.41;102980.19;5015109;28;20051;-73
2022/04/28 04:04:40;;;;;;;3.45;2.50;;;;;;;7.03;77.24;102980.56;5014553;28;20108;-73
2022/04/28 04:07:06;;;;;;;6.40;2.72;;;;;;;6.88;77.95;102972.50;5041786;28;20040;-72
2022/04/28 04:09:32;;;;;;;6.57;2.70;;;;;;;6.80;78.94;102972.03;5039205;28;20531;-73
2022/04/28 04:11:58;;;;;;;5.63;2.20;;;;;;;6.79;79.32;102981.69;5015473;28;20115;-73
2022/04/28 04:14:23;;;;;;;9.85;3.22;;;;;;;6.74;79.60;102977.56;5023704;28;20080;-72
2022/04/28 04:16:48;;;;;;;7.30;3.10;;;;;;;6.74;80.50;102988.91;5023300;28;20152;-73
2022/04/28 04:19:14;;;;;;;6.32;2.88;;;;;;;6.70;80.62;102981.25;4999680;28;20057;-73
2022/04/28 04:21:39;;;;;;;6.03;2.58;;;;;;;6.58;81.63;102970.41;5040582;28;20128;-73
2022/04/28 04:24:05;;;;;;;6.53;2.40;;;;;;;6.63;82.45;102991.19;5039530;28;20032;-72
2022/04/28 04:26:31;;;;;;;8.38;2.92;;;;;;;6.58;82.72;102985.31;5023835;28;20485;-73
2022/04/28 04:28:56;;;;;;;5.07;2.10;;;;;;;6.54;83.44;102989.84;5040419;28;20090;-72
2022/04/28 04:34:05;;;;;;;5.95;2.40;;;;;;;6.49;84.01;102989.22;5019124;28;20040;-72
2022/04/28 04:36:31;;;;;;;2.75;1.50;;;;;;;6.46;84.02;102994.56;5040781;28;20443;-72
2022/04/28 04:38:56;;;;;;;4.88;2.00;;;;;;;6.44;84.29;102990.31;5040976;28;20116;-72
2022/04/28 04:41:22;;;;;;;7.20;1.88;;;;;;;6.44;84.27;102999.03;5039755;28;20037;-72
2022/04/28 04:43:47;;;;;;;5.75;2.00;;;;;;;6.43;85.00;102999.97;5016333;28;20116;-72
2022/04/28 04:46:12;;;;;;;5.63;2.05;;;;;;;6.43;85.03;102999.97;5016699;28;20036;-73
2022/04/28 04:48:38;;;;;;;4.95;1.85;;;;;;;6.41;84.37;102995.72;5006263;28;20025;-72
2022/04/28 04:51:03;;;;;;;6.05;1.60;;;;;;;6.41;83.66;103007.06;5041137;28;20025;-72
2022/04/28 04:53:29;;;;;;;6.03;1.98;;;;;;;6.47;84.00;103017.28;5020749;28;20170;-73
2022/04/28 04:55:54;;;;;;;6.85;2.33;;;;;;;6.50;84.63;103013.66;5040510;28;20041;-73
2022/04/28 04:58:20;;;;;;;4.13;1.70;;;;;;;6.39;84.74;103001.88;5040810;28;20544;-72
2022/04/28 05:00:46;;;;;;;7.65;1.83;;;;;;;6.41;83.68;103000.97;5037270;28;20035;-73
2022/04/28 05:03:12;;;;;;;2.38;1.63;;;;;;;6.55;83.29;103023.03;5023095;28;20147;-72
2022/04/28 05:05:38;;;;;;;7.68;2.10;;;;;;;6.63;82.95;103027.06;5006093;28;20083;-73
2022/04/28 05:08:03;;;;;;;3.83;2.22;;;;;;;6.64;84.01;103031.38;5021932;28;20040;-72
2022/04/28 05:10:29;;;;;;;3.10;1.63;;;;;;;6.57;84.19;103020.31;5037848;28;20378;-72
2022/04/28 05:12:54;;;;;;;5.55;2.10;;;;;;;6.72;83.91;103037.13;5012035;28;20115;-71
2022/04/28 05:15:19;;;;;;;4.22;1.70;;;;;;;6.79;83.98;103033.28;5038062;28;20056;-72
2022/04/28 05:17:45;;;;;;;5.55;2.25;;;;;;;6.74;83.85;103009.06;5034690;28;20564;-73
2022/04/28 05:20:10;;;;;;;5.47;1.60;;;;;;;6.89;83.95;103041.59;5001295;28;20484;-73
2022/04/28 05:22:36;;;;;;;9.30;2.17;;;;;;;6.92;83.01;103044.06;5034638;28;20029;-73
2022/04/28 05:25:02;;;;;;;7.32;1.80;;;;;;;6.89;82.32;103044.22;5017623;28;20057;-73
2022/04/28 05:27:27;;;;;;;7.93;1.85;;;;;;;6.97;82.54;103047.34;5016099;28;20543;-72
2022/04/28 05:29:52;;;;;;;7.68;1.90;;;;;;;6.95;83.91;103034.28;5013180;28;20029;-73
2022/04/28 05:32:18;;;;;;;6.63;1.77;;;;;;;7.16;84.71;103066.56;5037542;28;20504;-73
2022/04/28 05:34:43;;;;;;;6.80;1.90;;;;;;;7.23;85.57;103061.88;5036772;28;20051;-73
2022/04/28 05:37:11;;;;;;;4.22;1.80;;;;;;;7.16;85.57;103050.81;5018682;28;20033;-73
2022/04/28 05:39:37;;;;;;;5.18;2.30;;;;;;;7.25;85.58;103067.91;5010414;28;20083;-73
2022/04/28 05:42:04;;;;;;;10.30;2.88;;;;;;;7.39;84.75;103073.31;5032299;28;20132;-73
2022/04/28 05:47:13;;;;;;;3.88;1.60;;;;;;;7.49;84.64;103067.59;5013455;28;20040;-73
2022/04/28 05:49:39;;;;;;;4.75;2.10;;;;;;;7.50;84.69;103067.53;4996529;28;20483;-73
2022/04/28 05:52:04;;;;;;;8.10;2.72;;;;;;;7.49;85.11;103067.59;5011385;28;20078;-73
2022/04/28 05:54:30;;;;;;;3.05;1.80;;;;;;;7.62;85.15;103094.97;5015453;28;20044;-73
2022/04/28 05:56:55;;;;;;;5.22;1.63;;;;;;;7.62;85.02;103084.47;5033763;28;20025;-72
2022/04/28 05:59:20;;;;;;;11.63;2.50;;;;;;;7.73;84.54;103087.44;5004437;28;20047;-71
2022/04/28 06:01:46;;;;;;;10.43;2.20;;;;;;;7.78;84.15;103063.53;5031151;28;20041;-72
2022/04/28 06:04:11;;;;;;;4.00;2.05;;;;;;;8.10;83.65;103080.31;5032420;28;20905;-72
2022/04/28 06:06:37;;;;;;;9.95;2.55;;;;;;;8.37;83.32;103098.22;5012323;28;20041;-72
2022/04/28 06:09:02;;;;;;;5.10;2.00;;;;;;;8.38;83.13;103086.75;4997878;28;20596;-73
2022/04/28 06:11:28;;;;;;;5.53;2.08;;;;;;;8.62;82.66;103096.03;5005779;28;20431;-73
2022/04/28 06:13:53;;;;;;;4.45;1.90;;;;;;;8.80;82.37;103103.88;5002241;28;20052;-73
2022/04/28 06:16:19;;;;;;;7.80;2.05;;;;;;;9.02;81.04;103107.03;5029217;28;20035;-72
2022/04/28 06:18:44;;;;;;;8.85;1.83;;;;;;;9.18;80.64;103108.81;5029226;28;20066;-72
2022/04/28 06:21:09;;;;;;;6.10;1.65;;;;;;;9.35;79.24;103106.06;5029241;28;20174;-72
2022/04/28 06:23:35;;;;;;;4.50;1.60;;;;;;;9.38;78.40;103089.22;5013826;28;20037;-72
2022/04/28 06:26:01;;;;;;;6.28;1.70;;;;;;;9.47;78.78;103104.50;5008356;28;20035;-72
2022/04/28 06:28:26;;;;;;;10.88;1.92;;;;;;;9.48;78.26;103106.22;5016093;28;20032;-72
2022/04/28 06:30:52;;;;;;;7.35;1.67;;;;;;;9.60;79.14;103109.94;5005308;28;20068;-72
2022/04/28 06:33:18;;;;;;;3.75;1.58;;;;;;;9.64;78.97;103109.66;5034410;28;20686;-73
2022/04/28 06:35:44;;;;;;;4.15;1.35;;;;;;;9.69;78.92;103117.34;5009200;28;20029;-73
2022/04/28 06:38:09;;;;;;;5.63;1.77;;;;;;;9.75;77.35;103114.31;5034943;28;20024;-73
2022/04/28 06:40:34;;;;;;;3.58;1.27;;;;;;;9.77;77.45;103098.41;5034950;28;20029;-73
2022/04/28 06:43:00;;;;;;;7.88;1.40;;;;;;;10.24;76.16;103116.72;4998822;28;20443;-74
2022/04/28 06:45:26;;;;;;;4.45;1.63;;;;;;;10.91;74.50;103113.56;5001729;28;20083;-73
2022/04/28 06:47:51;;;;;;;5.45;1.50;;;;;;;11.15;73.39;103123.50;5034895;28;20088;-73
2022/04/28 06:50:16;;;;;;;6.93;1.90;;;;;;;11.04;72.61;103137.38;5013210;28;20033;-73
2022/04/28 06:52:42;;;;;;;10.43;1.85;;;;;;;10.89;72.11;103139.22;5033657;28;20040;-73
2022/04/28 06:55:10;;;;;;;7.03;1.60;;;;;;;10.98;72.04;103132.50;5002861;28;20035;-72
2022/04/28 06:57:36;;;;;;;6.80;1.70;;;;;;;11.00;72.89;103126.19;5031327;28;20029;-72
2022/04/28 07:00:03;;;;;;;4.30;1.48;;;;;;;11.63;71.28;103121.28;5014271;28;20033;-73
2022/04/28 07:02:30;;;;;;;8.27;1.55;;;;;;;11.78;69.59;103128.19;5033749;28;20476;-73
2022/04/28 07:04:55;;;;;;;6.95;2.47;;;;;;;11.74;68.44;103134.63;5036049;28;20080;-74
2022/04/28 07:07:21;;;;;;;7.97;1.35;;;;;;;11.57;68.15;103146.31;5015179;28;20659;-73
2022/04/28 07:09:46;;;;;;;6.80;1.13;;;;;;;11.61;68.04;103139.88;5016394;28;20624;-71
2022/04/28 07:12:12;;;;;;;7.28;1.45;;;;;;;11.91;68.13;103152.03;5034960;28;20171;-71
2022/04/28 07:14:38;;;;;;;3.15;1.40;;;;;;;12.54;65.64;103147.78;5032135;28;20531;-72
2022/04/28 07:17:04;;;;;;;5.88;1.50;;;;;;;12.39;65.23;103154.13;5013251;28;20063;-73
2022/04/28 07:19:29;;;;;;;3.53;1.00;;;;;;;12.19;66.07;103137.81;5031751;28;20487;-70
2022/04/28 07:21:55;;;;;;;11.93;1.95;;;;;;;12.20;65.03;103160.69;5005679;28;20564;-72
2022/04/28 07:24:20;;;;;;;3.75;0.85;;;;;;;12.04;64.53;103154.72;5014518;28;20309;-71
2022/04/28 07:26:45;;;;;;;7.32;1.35;;;;;;;12.18;65.24;103157.31;5011569;28;20029;-71
2022/04/28 07:29:11;;;;;;;7.63;1.50;;;;;;;12.08;63.85;103157.06;5033941;28;20083;-71
2022/04/28 07:31:36;;;;;;;4.95;1.13;;;;;;;12.45;65.17;103146.59;5014449;28;20036;-72
2022/04/28 07:34:02;;;;;;;3.92;1.00;;;;;;;13.02;63.12;103174.44;5013959;28;20428;-71
2022/04/28 07:36:28;;;;;;;4.55;1.10;;;;;;;13.29;60.52;103176.09;5033576;28;20030;-72
2022/04/28 07:38:53;;;;;;;7.07;1.27;;;;;;;13.06;62.05;103181.19;5036348;28;20036;-71
2022/04/28 07:41:19;;;;;;;6.40;1.35;;;;;;;13.01;62.00;103156.84;5015819;28;20044;-72
2022/04/28 07:43:44;;;;;;;4.53;1.40;;;;;;;13.34;63.02;103179.25;4985908;28;20637;-72
2022/04/28 07:46:09;;;;;;;8.35;1.60;;;;;;;13.62;60.95;103172.78;5015312;28;20036;-72
2022/04/28 07:48:35;;;;;;;5.85;2.10;;;;;;;13.53;62.28;103179.63;5040475;28;20021;-72
2022/04/28 07:51:00;;;;;;;7.65;1.92;;;;;;;13.31;62.31;103190.94;5038901;28;20529;-72
2022/04/28 07:53:26;;;;;;;8.32;2.28;;;;;;;13.30;63.20;103196.34;5039119;28;20033;-72
2022/04/28 07:58:37;;;;;;;11.38;2.40;;;;;;;13.91;62.26;103199.81;5038622;28;20072;-72
2022/04/28 08:01:03;;;;;;;11.38;2.97;;;;;;;13.85;61.50;103200.28;5041134;28;20035;-71
2022/04/28 08:03:29;;;;;;;13.70;2.45;;;;;;;13.58;62.55;103198.69;5040218;28;20556;-71
2022/04/28 08:05:54;;;;;;;6.80;2.00;;;;;;;13.43;62.05;103205.13;5034967;28;20021;-71
2022/04/28 08:08:20;;;;;;;9.32;2.80;;;;;;;13.42;62.55;103208.75;5040609;28;20297;-71
2022/04/28 08:10:46;;;;;;;6.63;2.33;;;;;;;13.34;62.24;103211.09;5038030;28;20091;-71
2022/04/28 08:13:12;;;;;;;11.43;2.55;;;;;;;13.20;62.63;103203.25;5037020;28;20119;-71
2022/04/28 08:15:37;;;;;;;6.75;1.85;;;;;;;13.18;62.78;103201.53;5020229;28;20386;-71
2022/04/28 08:18:04;;;;;;;8.80;2.05;;;;;;;13.22;62.46;103188.94;5039508;28;20029;-72
2022/04/28 08:20:30;;;;;;;6.65;2.47;;;;;;;13.44;60.96;103193.56;5040642;28;20068;-71
2022/04/28 08:22:55;;;;;;;7.40;2.13;;;;;;;13.42;61.02;103214.03;5022189;28;20497;-70
2022/04/28 08:25:20;;;;;;;7.18;1.70;;;;;;;13.61;61.40;103202.94;5039520;28;20072;-70
2022/04/28 08:27:46;;;;;;;8.23;1.80;;;;;;;13.76;61.97;103211.56;5018502;28;20029;-70
2022/04/28 08:30:11;;;;;;;8.68;2.38;;;;;;;13.73;61.71;103211.81;5015695;28;20483;-70
2022/04/28 08:32:37;;;;;;;6.93;1.90;;;;;;;13.59;61.32;103215.47;5004187;28;20033;-71
2022/04/28 08:35:02;;;;;;;6.63;1.38;;;;;;;13.40;62.82;103221.25;5036355;28;20401;-70
2022/04/28 08:37:28;;;;;;;5.13;1.80;;;;;;;13.37;62.88;103218.84;5036227;28;20021;-71
2022/04/28 08:39:53;;;;;;;5.38;1.63;;;;;;;13.32;61.91;103224.44;5037121;28;20033;-70
2022/04/28 08:42:21;;;;;;;5.30;1.20;;;;;;;13.37;61.13;103216.19;5038018;28;20564;-69
2022/04/28 08:44:46;;;;;;;4.45;1.45;;;;;;;13.70;60.77;103214.69;5020396;28;20024;-70
2022/04/28 08:47:13;;;;;;;7.85;1.70;;;;;;;14.16;59.77;103221.88;5015831;28;20032;-69
2022/04/28 08:49:42;;;;;;;6.65;2.03;;;;;;;14.01;59.84;103204.44;5003558;28;20034;-70
2022/04/28 08:52:08;;;;;;;5.38;1.10;;;;;;;14.18;59.78;103217.31;5035326;28;20021;-70
2022/04/28 08:54:36;;;;;;;10.50;1.42;;;;;;;13.91;59.64;103228.16;5019293;28;20039;-70
2022/04/28 08:57:02;;;;;;;6.70;1.90;;;;;;;13.93;60.72;103235.06;5039504;28;20020;-70
2022/04/28 08:59:27;;;;;;;7.25;1.30;;;;;;;14.23;60.75;103225.75;5037358;28;20037;-72
2022/04/28 09:01:52;;;;;;;8.13;2.03;;;;;;;14.22;61.09;103229.41;5039344;28;20071;-70
2022/04/28 09:04:19;;;;;;;5.60;1.77;;;;;;;14.19;59.62;103234.91;5035376;28;20067;-71
2022/04/28 09:06:48;;;;;;;7.18;1.60;;;;;;;13.82;59.87;103219.06;5014156;28;20025;-71
2022/04/28 09:09:15;;;;;;;11.45;1.52;;;;;;;13.89;60.85;103238.91;5039182;28;20297;-70
2022/04/28 09:11:42;;;;;;;5.35;1.52;;;;;;;13.89;60.09;103224.78;5019485;28;20323;-70
2022/04/28 09:14:10;;;;;;;7.32;1.27;;;;;;;14.28;59.18;103231.56;5020057;28;20025;-70
2022/04/28 09:16:48;;;;;;;5.80;1.27;;;;;;;14.89;58.63;103239.31;5038504;28;20516;-70
2022/04/28 09:19:24;;;;;;;6.15;1.40;;;;;;;15.40;56.65;103227.34;5019393;28;20024;-70
2022/04/28 09:21:54;;;;;;;4.47;1.42;;;;;;;16.38;55.69;103250.38;5019101;28;20671;-71
2022/04/28 09:24:21;;;;;;;10.90;2.05;;;;;;;17.03;53.31;103245.72;5030220;28;20029;-70
2022/04/28 09:26:48;;;;;;;6.47;1.30;;;;;;;16.85;53.59;103237.47;5034512;28;20049;-70
2022/04/28 09:29:15;;;;;;;8.30;1.50;;;;;;;16.43;54.52;103237.50;5037639;28;20024;-71
2022/04/28 09:31:44;;;;;;;7.93;1.73;;;;;;;16.02;55.08;103233.81;5037782;28;20137;-72
2022/04/28 09:34:11;;;;;;;6.47;2.00;;;;;;;15.82;54.71;103223.00;5036557;28;20032;-70
2022/04/28 09:36:39;;;;;;;3.42;1.42;;;;;;;15.87;56.29;103235.94;5029769;28;20527;-70
2022/04/28 09:39:06;;;;;;;7.75;1.67;;;;;;;15.90;55.56;103227.72;5031990;28;20111;-71
2022/04/28 09:44:34;;;;;;;5.00;1.42;;;;;;;16.18;54.73;103249.41;4935387;29;20027;-71
2022/04/28 09:47:00;;;;;;;8.15;1.50;;;;;;;15.99;55.25;103240.25;4936259;29;20050;-70
2022/04/28 09:49:28;;;;;;;7.53;1.75;;;;;;;15.71;54.79;103246.16;4919837;29;20083;-71
2022/04/28 09:51:58;;;;;;;5.88;1.60;;;;;;;15.75;55.83;103255.59;4935321;29;20051;-71
2022/04/28 09:54:28;;;;;;;7.30;1.35;;;;;;;16.22;54.68;103229.50;4934846;29;20065;-70
2022/04/28 09:56:53;;;;;;;3.90;1.30;;;;;;;16.24;54.54;103248.88;4937788;29;20030;-70
2022/04/28 09:59:20;;;;;;;5.47;1.27;;;;;;;16.26;54.36;103249.56;4936995;28;20051;-70
2022/04/28 10:01:46;;;;;;;7.10;1.98;;;;;;;16.11;54.92;103241.03;4936063;29;20594;-70
2022/04/28 10:04:11;;;;;;;8.63;1.40;;;;;;;16.25;54.73;103250.56;4918597;29;20201;-70
2022/04/28 10:06:38;;;;;;;7.90;1.98;;;;;;;16.30;54.73;103240.34;4936199;29;20047;-70
2022/04/28 10:09:12;;;;;;;6.35;1.98;;;;;;;16.47;54.30;103254.09;4933364;29;20266;-70
2022/04/28 10:11:38;;;;;;;8.18;1.58;;;;;;;16.42;54.52;103254.47;4936152;28;20503;-71
2022/04/28 10:14:05;;;;;;;8.15;1.70;;;;;;;16.21;53.05;103244.63;4935039;29;20384;-70
2022/04/28 10:16:31;;;;;;;7.28;2.05;;;;;;;17.03;51.90;103237.72;4935317;29;20027;-70
2022/04/28 10:19:10;;;;;;;7.43;1.98;;;;;;;17.25;52.13;103258.84;4997639;28;20044;-70
2022/04/28 10:22:11;;;;;;;5.32;1.52;;;;;;;17.12;53.29;103250.25;5032095;28;20041;-71
2022/04/28 10:33:20;;;;;;;6.63;2.03;;;;;;;18.41;52.33;103259.97;4935972;29;20043;-70
2022/04/28 10:35:54;;;;;;;6.75;1.55;;;;;;;19.70;46.14;103258.34;4934840;29;20144;-71
2022/04/28 10:38:31;;;;;;;6.88;1.65;;;;;;;19.48;47.38;103253.41;4935780;29;20090;-70
2022/04/28 10:41:07;;;;;;;6.90;1.33;;;;;;;20.19;46.59;103247.25;4934432;29;20500;-70
2022/04/28 10:43:33;;;;;;;5.50;1.35;;;;;;;22.44;43.20;103262.00;4936177;29;20031;-70
2022/04/28 10:46:01;;;;;;;7.65;1.40;;;;;;;22.08;43.25;103256.09;4933845;29;20255;-70
2022/04/28 10:48:29;;;;;;;4.70;1.50;;;;;;;22.15;43.30;103274.09;4935503;29;20574;-70
2022/04/28 10:51:10;;;;;;;4.93;1.45;;;;;;;21.28;43.73;103262.84;4935901;29;20035;-70
2022/04/28 10:53:54;;;;;;;7.05;1.55;;;;;;;20.45;44.18;103262.53;4936030;29;20566;-74
2022/04/28 10:56:20;;;;;;;6.82;1.33;;;;;;;20.25;45.92;103262.72;4936561;29;20495;-70
2022/04/28 10:58:45;;;;;;;6.05;1.35;;;;;;;19.69;46.50;103256.69;4937840;29;20031;-71
2022/04/28 11:01:27;;;;;;;7.45;1.55;;;;;;;19.13;46.96;103255.00;4983356;28;20174;-78
2022/04/28 11:03:58;;;;;;;5.38;1.42;;;;;;;18.52;48.13;103240.25;5034119;28;20025;-74
2022/04/28 11:06:33;;;;;;;6.07;1.70;;;;;;;18.48;48.48;103238.84;5016814;28;20028;-75
2022/04/28 11:09:00;;;;;;;10.85;2.20;;;;;;;19.53;48.22;103249.28;5036258;28;20017;-75
2022/04/28 11:11:41;;;;;;;5.22;1.65;;;;;;;19.61;46.04;103264.59;5034727;28;20233;-73
2022/04/28 11:14:08;;;;;;;6.38;1.23;;;;;;;19.67;46.08;103263.16;5038568;28;20029;-74
2022/04/28 11:16:34;;;;;;;9.20;2.13;;;;;;;18.84;48.02;103266.66;5022642;28;20020;-74
2022/04/28 11:18:59;;;;;;;6.63;1.55;;;;;;;18.84;47.33;103255.97;5023467;28;20085;-75
2022/04/28 11:21:25;;;;;;;4.55;1.45;;;;;;;19.19;47.07;103269.66;5021310;28;20052;-75
2022/04/28 11:23:51;;;;;;;6.15;1.20;;;;;;;19.53;47.66;103267.19;5006223;28;20393;-76
2022/04/28 11:26:18;;;;;;;6.93;1.73;;;;;;;19.97;45.80;103275.38;5005199;28;20508;-75
2022/04/28 11:28:44;;;;;;;5.45;1.35;;;;;;;21.13;45.79;103273.34;5038909;28;20118;-76
2022/04/28 11:31:14;;;;;;;4.47;1.45;;;;;;;21.11;44.01;103279.88;5014270;28;20243;-76
2022/04/28 11:33:42;;;;;;;6.78;1.65;;;;;;;20.28;44.90;103283.84;5039361;28;20638;-76
2022/04/28 11:36:21;;;;;;;5.65;1.40;;;;;;;19.70;46.76;103285.16;5035104;28;20043;-76
2022/04/28 11:38:52;;;;;;;7.40;1.77;;;;;;;19.89;47.03;103273.47;5021451;28;20550;-75
2022/04/28 11:41:38;;;;;;;7.10;1.50;;;;;;;20.00;46.78;103274.22;5017235;28;20055;-75
2022/04/28 11:44:17;;;;;;;8.95;1.92;;;;;;;19.66;46.80;103277.53;5039315;28;20039;-76
2022/04/28 11:46:45;;;;;;;4.88;1.35;;;;;;;19.12;46.78;103280.09;5031735;28;20033;-75
2022/04/28 11:49:10;;;;;;;6.95;1.60;;;;;;;19.26;47.11;103276.91;5041364;28;20112;-75
2022/04/28 11:51:36;;;;;;;3.90;1.25;;;;;;;18.77;47.95;103276.25;5037226;28;20865;-74
2022/04/28 11:54:03;;;;;;;7.07;1.38;;;;;;;18.88;48.45;103283.28;5039813;28;20033;-76
2022/04/28 11:56:31;;;;;;;5.50;1.42;;;;;;;18.44;48.15;103277.56;5039195;28;20029;-76